createdAt,value
2022-09-05T10:21:34.447Z,5.10
2022-09-05T10:24:48.599Z,4.30
2022-09-05T10:27:57.531Z,4.20
2022-09-05T10:32:24.562Z,4.38
2022-09-05T10:35:17.316Z,4.50
2022-09-05T10:37:20.149Z,4.47
2022-09-05T10:40:10.938Z,4.60
2022-09-05T10:43:03.044Z,4.95
2022-09-05T10:48:53.072Z,4.28
2022-09-05T10:51:51.731Z,4.22
2022-09-05T10:54:52.576Z,4.70
2022-09-05T10:58:04.432Z,4.60
2022-09-05T11:04:13.851Z,5.25
2022-09-05T11:07:09.636Z,4.85
2022-09-05T11:10:05.355Z,9.63
2022-09-05T11:13:16.845Z,4.32
2022-09-05T11:16:15.985Z,3.90
2022-09-05T11:19:05.472Z,5.55
2022-09-05T11:22:04.052Z,4.72
2022-09-05T11:25:16.993Z,5.45
2022-09-05T11:28:16.027Z,4.35
2022-09-05T11:31:06.246Z,4.00
2022-09-05T11:39:54.591Z,4.38
2022-09-05T11:39:55.602Z,4.78
2022-09-05T11:41:54.221Z,4.50
2022-09-05T11:44:57.367Z,4.05
2022-09-05T11:48:19.126Z,4.35
2022-09-05T11:51:41.028Z,4.60
2022-09-05T11:54:57.552Z,4.32
2022-09-05T11:58:43.400Z,4.18
2022-09-05T12:01:43.336Z,4.38
2022-09-05T12:05:48.921Z,3.88
2022-09-05T12:08:08.211Z,4.13
2022-09-05T12:11:05.439Z,3.70
2022-09-05T12:14:01.886Z,3.92
2022-09-05T12:17:35.250Z,4.30
2022-09-05T12:20:32.724Z,3.65
2022-09-05T12:27:42.469Z,3.63
2022-09-05T12:29:59.430Z,4.25
2022-09-05T12:34:46.678Z,3.72
2022-09-05T12:40:45.163Z,3.92
2022-09-05T12:41:32.639Z,4.32
2022-09-05T12:42:56.191Z,3.80
2022-09-05T12:45:58.069Z,3.28
2022-09-05T12:48:53.984Z,3.95
2022-09-05T12:51:47.821Z,3.63
2022-09-05T12:54:42.590Z,3.45
2022-09-05T13:02:53.382Z,3.53
2022-09-05T13:03:07.540Z,3.65
2022-09-05T13:07:09.633Z,3.78
2022-09-05T13:11:24.141Z,3.67
2022-09-05T13:15:02.798Z,3.90
2022-09-05T13:16:23.112Z,3.90
2022-09-05T13:19:28.338Z,3.42
2022-09-05T13:22:17.585Z,3.80
2022-09-05T13:25:09.434Z,3.63
2022-09-05T13:28:02.012Z,3.75
2022-09-05T13:38:07.998Z,3.80
2022-09-05T13:38:10.406Z,3.42
2022-09-05T13:38:12.465Z,11.13
2022-09-05T13:40:38.731Z,3.33
2022-09-05T13:43:28.323Z,3.60
2022-09-05T13:46:20.104Z,6.72
2022-09-05T13:49:25.101Z,4.03
2022-09-05T13:52:29.036Z,4.65
2022-09-05T13:55:37.874Z,4.18
2022-09-05T13:58:39.740Z,3.53
2022-09-05T14:05:14.760Z,4.47
2022-09-05T14:08:28.461Z,3.40
2022-09-05T14:11:50.270Z,3.45
2022-09-05T14:18:00.573Z,3.20
2022-09-05T14:21:10.956Z,3.42
2022-09-05T14:24:04.609Z,4.20
2022-09-05T14:26:55.538Z,3.50
2022-09-05T14:29:39.073Z,3.65
2022-09-05T14:37:38.789Z,3.35
2022-09-05T14:37:58.325Z,3.67
2022-09-05T14:38:41.271Z,3.20
2022-09-05T14:41:44.252Z,3.10
2022-09-05T14:44:42.243Z,3.58
2022-09-05T14:47:35.303Z,3.42
2022-09-05T14:50:30.060Z,3.33
2022-09-05T14:56:23.157Z,3.20
2022-09-05T15:02:43.484Z,3.33
2022-09-05T15:02:54.063Z,3.70
2022-09-05T15:04:34.782Z,3.75
2022-09-05T15:07:08.745Z,3.65
2022-09-05T15:12:18.010Z,4.45
2022-09-05T15:12:38.552Z,4.75
2022-09-05T15:15:22.601Z,4.20
2022-09-05T15:17:54.069Z,3.90
2022-09-05T15:20:33.421Z,3.70
2022-09-05T15:23:11.293Z,4.18
2022-09-05T15:25:48.266Z,4.10
2022-09-05T15:28:21.663Z,4.28
2022-09-05T15:30:59.945Z,4.03
2022-09-05T15:33:31.217Z,4.57
2022-09-05T15:36:00.737Z,4.00
2022-09-05T15:38:38.729Z,3.97
2022-09-05T15:41:24.561Z,3.63
2022-09-05T15:43:58.294Z,4.20
2022-09-05T15:46:41.180Z,4.38
2022-09-05T15:49:23.135Z,3.78
2022-09-05T15:51:53.182Z,4.38
2022-09-05T15:54:37.777Z,4.13
2022-09-05T15:57:17.798Z,3.80
2022-09-05T15:59:49.200Z,4.43
2022-09-05T16:02:22.621Z,5.28
2022-09-05T16:10:29.588Z,12.00
2022-09-05T16:10:50.407Z,9.40
2022-09-05T16:11:07.707Z,8.75
2022-09-05T16:13:52.096Z,9.00
2022-09-05T16:23:14.932Z,11.07
2022-09-05T16:23:26.987Z,7.47
2022-09-05T16:23:31.435Z,5.85
2022-09-05T16:24:59.465Z,5.88
2022-09-05T16:27:50.725Z,4.95
2022-09-05T16:30:24.288Z,4.95
2022-09-05T16:32:58.727Z,5.68
2022-09-05T16:35:31.002Z,6.03
2022-09-05T16:38:09.751Z,5.55
2022-09-05T16:40:41.969Z,4.20
2022-09-05T16:43:16.754Z,4.90
2022-09-05T16:45:51.839Z,4.85
2022-09-05T16:48:35.027Z,5.07
2022-09-05T16:51:15.223Z,4.55
2022-09-05T16:53:58.709Z,5.10
2022-09-05T16:56:33.808Z,4.80
2022-09-05T16:59:04.301Z,4.13
2022-09-05T17:01:54.921Z,4.55
2022-09-05T17:07:55.401Z,5.18
2022-09-05T17:10:27.418Z,5.18
2022-09-05T17:12:57.102Z,5.22
2022-09-05T17:15:28.721Z,5.03
2022-09-05T17:18:20.239Z,5.03
2022-09-05T17:20:55.012Z,5.13
2022-09-05T17:29:20.603Z,4.82
2022-09-05T17:29:33.609Z,5.38
2022-09-05T17:32:48.329Z,5.03
2022-09-05T17:35:23.999Z,4.93
2022-09-05T17:38:12.172Z,5.38
2022-09-05T17:41:17.351Z,5.28
2022-09-05T17:43:50.665Z,5.35
2022-09-05T17:46:23.694Z,5.53
2022-09-05T17:49:18.846Z,7.00
2022-09-05T17:52:23.748Z,6.82
2022-09-05T17:54:54.140Z,7.35
2022-09-05T17:57:39.930Z,7.03
2022-09-05T18:00:40.408Z,5.95
2022-09-05T18:03:08.957Z,6.32
2022-09-05T18:05:59.589Z,5.82
2022-09-05T18:08:52.632Z,6.07
2022-09-05T18:11:44.752Z,6.18
2022-09-05T18:14:50.279Z,6.05
2022-09-05T18:17:58.878Z,5.90
2022-09-05T18:20:49.855Z,7.05
2022-09-05T18:23:54.382Z,6.75
2022-09-05T18:26:25.645Z,7.03
2022-09-05T18:29:01.606Z,7.63
2022-09-05T18:32:01.579Z,7.03
2022-09-05T18:34:44.913Z,8.32
2022-09-05T18:38:00.088Z,8.13
2022-09-05T18:40:39.756Z,8.27
2022-09-05T18:43:14.630Z,8.40
2022-09-05T18:45:53.061Z,7.47
2022-09-05T18:48:29.605Z,8.02
2022-09-05T18:51:15.488Z,7.75
2022-09-05T18:53:47.416Z,7.50
2022-09-05T18:56:32.927Z,7.28
2022-09-05T18:59:17.825Z,7.97
2022-09-05T19:01:59.061Z,7.90
2022-09-05T19:04:41.495Z,8.68
2022-09-05T19:07:13.369Z,8.27
2022-09-05T19:10:03.719Z,8.55
2022-09-05T19:12:53.363Z,7.60
2022-09-05T19:15:25.020Z,8.50
2022-09-05T19:18:03.672Z,6.40
2022-09-05T19:21:12.013Z,7.38
2022-09-05T19:23:46.533Z,6.70
2022-09-05T19:26:15.002Z,7.53
2022-09-05T19:35:53.041Z,6.03
2022-09-05T19:36:53.602Z,7.05
2022-09-05T19:37:11.018Z,6.97
2022-09-05T19:37:36.618Z,6.63
2022-09-05T19:47:25.533Z,6.65
2022-09-05T19:47:37.377Z,6.03
2022-09-05T19:47:55.699Z,6.15
2022-09-05T19:48:35.783Z,5.78
2022-09-05T19:51:17.625Z,6.32
2022-09-05T19:56:36.775Z,6.35
2022-09-05T19:59:16.440Z,5.50
2022-09-05T20:01:46.073Z,5.18
2022-09-05T20:04:18.613Z,5.72
2022-09-05T20:06:47.447Z,5.55
2022-09-05T20:09:18.957Z,5.43
2022-09-05T20:11:49.823Z,4.93
2022-09-05T20:14:21.329Z,5.28
2022-09-05T20:16:50.450Z,5.03
2022-09-05T20:19:28.291Z,5.43
2022-09-05T20:21:58.297Z,4.57
2022-09-05T20:24:28.093Z,5.50
2022-09-05T20:26:56.360Z,4.97
2022-09-05T20:29:54.144Z,5.13
2022-09-05T20:32:37.093Z,4.75
2022-09-05T20:39:08.648Z,4.57
2022-09-05T20:43:18.925Z,4.65
2022-09-05T20:43:21.747Z,3.95
2022-09-05T20:43:55.876Z,4.05
2022-09-05T20:47:46.437Z,4.35
2022-09-05T20:54:07.117Z,4.05
2022-09-05T20:54:12.669Z,3.70
2022-09-05T20:55:39.621Z,3.67
2022-09-05T20:57:51.734Z,4.00
2022-09-05T21:00:22.462Z,3.58
2022-09-05T21:02:54.566Z,4.07
2022-09-05T21:05:29.862Z,3.67
2022-09-05T21:08:24.706Z,3.50
2022-09-05T21:10:55.830Z,3.22
2022-09-05T21:13:28.703Z,4.00
2022-09-05T21:15:57.543Z,3.70
2022-09-05T21:18:30.037Z,3.50
2022-09-05T21:21:08.933Z,3.55
2022-09-05T21:24:17.269Z,3.30
2022-09-05T21:26:50.752Z,3.95
2022-09-05T21:29:32.253Z,4.05
2022-09-05T21:32:10.414Z,4.38
2022-09-05T21:34:45.359Z,4.65
2022-09-05T21:37:16.774Z,4.20
2022-09-05T21:39:59.398Z,4.40
2022-09-05T21:46:40.014Z,4.55
2022-09-05T21:47:50.093Z,4.43
2022-09-05T21:48:13.205Z,4.25
2022-09-05T21:50:45.189Z,4.35
2022-09-05T21:59:14.385Z,4.80
2022-09-05T21:59:21.116Z,4.47
2022-09-05T21:59:28.693Z,4.45
2022-09-05T22:02:00.983Z,4.03
2022-09-05T22:04:29.265Z,4.20
2022-09-05T22:07:02.586Z,4.82
2022-09-05T22:09:31.038Z,5.03
2022-09-05T22:11:59.901Z,4.97
2022-09-05T22:14:27.670Z,5.00
2022-09-05T22:16:58.488Z,4.57
2022-09-05T22:19:37.264Z,5.32
2022-09-05T22:22:15.827Z,4.60
2022-09-05T22:24:47.805Z,5.40
2022-09-05T22:27:19.810Z,4.75
2022-09-05T22:29:50.438Z,4.78
2022-09-05T22:32:34.806Z,5.05
2022-09-05T22:35:27.895Z,5.53
2022-09-05T22:38:00.524Z,5.53
2022-09-05T22:40:29.528Z,5.40
2022-09-05T22:42:58.583Z,5.88
2022-09-05T22:45:26.453Z,5.93
2022-09-05T22:47:54.493Z,5.53
2022-09-05T22:50:25.194Z,6.00
2022-09-05T22:52:53.470Z,6.03
2022-09-05T22:55:21.280Z,5.72
2022-09-05T22:57:49.596Z,6.72
2022-09-05T23:00:17.706Z,6.88
2022-09-05T23:02:50.182Z,6.53
2022-09-05T23:05:20.579Z,6.95
2022-09-05T23:07:49.861Z,6.53
2022-09-05T23:10:18.045Z,7.00
2022-09-05T23:12:46.192Z,6.78
2022-09-05T23:15:14.296Z,6.55
2022-09-05T23:17:42.304Z,6.18
2022-09-05T23:20:11.518Z,7.25
2022-09-05T23:22:39.720Z,6.22
2022-09-05T23:25:09.881Z,7.15
2022-09-05T23:27:38.461Z,6.78
2022-09-05T23:30:09.901Z,6.60
2022-09-05T23:32:38.186Z,6.03
2022-09-05T23:35:07.295Z,6.68
2022-09-05T23:37:35.232Z,6.38
2022-09-05T23:40:03.490Z,6.70
2022-09-05T23:42:32.927Z,6.50
2022-09-05T23:45:00.842Z,6.53
2022-09-05T23:47:29.750Z,6.32
2022-09-05T23:49:58.298Z,5.95
2022-09-05T23:52:26.329Z,6.22
2022-09-05T23:54:54.166Z,5.43
2022-09-05T23:57:23.250Z,6.25
2022-09-05T23:59:52.888Z,5.75
